Chatham, Virginia
Current Conditions -  °F | °C
As of 8:53 AM on Monday 26 Jan 2015 (Local Time) from KDAN Reporting Station
Few Clouds Few Clouds  
Wind Chill: 37°   Ceiling: Unl
Heat Index: 40°   Visibility: 10mi
Dew Point: 37°   Wind: 5mph
Humidity: 89%   Direction: 60°ENE
Pressure: 29.68"   Gusts: NA
Location:  36.83°N, 79.4°W
Report Text: KDAN 261353Z AUTO 06004KT 10SM FEW120 04/03 A2968 RMK AO2 SLP046 T00440028
Loading
Personal Weather Stations






























Interactive Weather Map New forecast layout! Learn more

10-Day Weather Forecast

Advertisements
Track Severe Weather on mobile